sensor_id;sensor_type;location;lat;lon;timestamp;P1;durP1;ratioP1;P2;durP2;ratioP2
16407;SDS011;8313;49.894;8.084;2023-05-14T00:01:46;4.43;;;4.03;;
16407;SDS011;8313;49.894;8.084;2023-05-14T00:04:12;4.07;;;3.77;;
16407;SDS011;8313;49.894;8.084;2023-05-14T00:06:37;4.37;;;3.97;;
16407;SDS011;8313;49.894;8.084;2023-05-14T00:09:03;4.93;;;4.17;;
16407;SDS011;8313;49.894;8.084;2023-05-14T00:11:30;4.90;;;4.40;;
16407;SDS011;8313;49.894;8.084;2023-05-14T00:13:55;4.10;;;3.80;;
16407;SDS011;8313;49.894;8.084;2023-05-14T00:16:21;6.67;;;4.67;;
16407;SDS011;8313;49.894;8.084;2023-05-14T00:18:47;4.80;;;4.40;;
16407;SDS011;8313;49.894;8.084;2023-05-14T00:21:12;4.23;;;3.90;;
16407;SDS011;8313;49.894;8.084;2023-05-14T00:23:38;6.13;;;4.60;;
16407;SDS011;8313;49.894;8.084;2023-05-14T00:26:04;6.70;;;4.60;;
16407;SDS011;8313;49.894;8.084;2023-05-14T00:28:30;4.50;;;4.10;;
16407;SDS011;8313;49.894;8.084;2023-05-14T00:30:55;4.60;;;4.20;;
16407;SDS011;8313;49.894;8.084;2023-05-14T00:33:21;5.27;;;4.67;;
16407;SDS011;8313;49.894;8.084;2023-05-14T00:35:47;5.10;;;4.00;;
16407;SDS011;8313;49.894;8.084;2023-05-14T00:38:13;5.70;;;4.90;;
16407;SDS011;8313;49.894;8.084;2023-05-14T00:40:43;4.80;;;4.37;;
16407;SDS011;8313;49.894;8.084;2023-05-14T00:43:14;4.07;;;3.70;;
16407;SDS011;8313;49.894;8.084;2023-05-14T00:45:40;4.20;;;3.87;;
16407;SDS011;8313;49.894;8.084;2023-05-14T00:48:06;4.60;;;4.23;;
16407;SDS011;8313;49.894;8.084;2023-05-14T00:50:32;4.57;;;4.17;;
16407;SDS011;8313;49.894;8.084;2023-05-14T00:52:58;4.70;;;4.13;;
16407;SDS011;8313;49.894;8.084;2023-05-14T00:55:24;6.43;;;4.23;;
16407;SDS011;8313;49.894;8.084;2023-05-14T00:57:51;5.30;;;4.70;;
16407;SDS011;8313;49.894;8.084;2023-05-14T01:00:18;4.23;;;3.83;;
16407;SDS011;8313;49.894;8.084;2023-05-14T01:02:45;5.30;;;4.80;;
16407;SDS011;8313;49.894;8.084;2023-05-14T01:05:10;4.83;;;4.43;;
16407;SDS011;8313;49.894;8.084;2023-05-14T01:07:45;4.23;;;3.90;;
16407;SDS011;8313;49.894;8.084;2023-05-14T01:15:44;6.53;;;4.50;;
16407;SDS011;8313;49.894;8.084;2023-05-14T01:18:12;4.40;;;4.00;;
16407;SDS011;8313;49.894;8.084;2023-05-14T01:20:41;4.37;;;3.97;;
16407;SDS011;8313;49.894;8.084;2023-05-14T01:23:08;4.50;;;4.10;;
16407;SDS011;8313;49.894;8.084;2023-05-14T01:25:34;5.80;;;4.13;;
16407;SDS011;8313;49.894;8.084;2023-05-14T01:28:17;4.17;;;3.80;;
16407;SDS011;8313;49.894;8.084;2023-05-14T01:33:21;5.33;;;4.63;;
16407;SDS011;8313;49.894;8.084;2023-05-14T01:35:51;5.07;;;4.67;;
16407;SDS011;8313;49.894;8.084;2023-05-14T01:38:18;4.30;;;3.80;;
16407;SDS011;8313;49.894;8.084;2023-05-14T01:40:45;6.63;;;4.40;;
16407;SDS011;8313;49.894;8.084;2023-05-14T01:43:13;5.20;;;4.60;;
16407;SDS011;8313;49.894;8.084;2023-05-14T01:45:40;5.33;;;4.73;;
16407;SDS011;8313;49.894;8.084;2023-05-14T01:48:06;5.30;;;4.90;;
16407;SDS011;8313;49.894;8.084;2023-05-14T01:50:32;8.07;;;4.47;;
16407;SDS011;8313;49.894;8.084;2023-05-14T01:52:58;4.63;;;4.23;;
16407;SDS011;8313;49.894;8.084;2023-05-14T01:55:24;4.93;;;4.03;;
16407;SDS011;8313;49.894;8.084;2023-05-14T01:57:50;5.03;;;4.63;;
16407;SDS011;8313;49.894;8.084;2023-05-14T02:00:16;4.50;;;4.10;;
16407;SDS011;8313;49.894;8.084;2023-05-14T02:02:42;5.70;;;4.37;;
16407;SDS011;8313;49.894;8.084;2023-05-14T02:05:10;6.80;;;4.80;;
16407;SDS011;8313;49.894;8.084;2023-05-14T02:07:37;4.47;;;3.90;;
16407;SDS011;8313;49.894;8.084;2023-05-14T02:10:03;3.87;;;3.53;;
16407;SDS011;8313;49.894;8.084;2023-05-14T02:12:29;4.00;;;3.70;;
16407;SDS011;8313;49.894;8.084;2023-05-14T02:14:55;5.33;;;4.70;;
16407;SDS011;8313;49.894;8.084;2023-05-14T02:17:20;5.33;;;4.73;;
16407;SDS011;8313;49.894;8.084;2023-05-14T02:19:46;5.80;;;5.20;;
16407;SDS011;8313;49.894;8.084;2023-05-14T02:22:12;4.47;;;4.17;;
16407;SDS011;8313;49.894;8.084;2023-05-14T02:24:38;8.40;;;4.60;;
16407;SDS011;8313;49.894;8.084;2023-05-14T02:27:03;5.13;;;4.73;;
16407;SDS011;8313;49.894;8.084;2023-05-14T02:29:30;4.93;;;4.43;;
16407;SDS011;8313;49.894;8.084;2023-05-14T02:31:55;4.83;;;4.43;;
16407;SDS011;8313;49.894;8.084;2023-05-14T02:34:21;6.67;;;4.40;;
16407;SDS011;8313;49.894;8.084;2023-05-14T02:36:48;5.17;;;3.90;;
16407;SDS011;8313;49.894;8.084;2023-05-14T02:39:14;4.40;;;4.00;;
16407;SDS011;8313;49.894;8.084;2023-05-14T02:41:40;4.87;;;4.37;;
16407;SDS011;8313;49.894;8.084;2023-05-14T02:44:05;4.20;;;3.80;;
16407;SDS011;8313;49.894;8.084;2023-05-14T02:46:31;5.80;;;4.73;;
16407;SDS011;8313;49.894;8.084;2023-05-14T02:48:57;4.60;;;4.20;;
16407;SDS011;8313;49.894;8.084;2023-05-14T02:51:22;4.97;;;4.57;;
16407;SDS011;8313;49.894;8.084;2023-05-14T02:53:48;4.33;;;3.93;;
16407;SDS011;8313;49.894;8.084;2023-05-14T02:56:14;4.60;;;4.20;;
16407;SDS011;8313;49.894;8.084;2023-05-14T02:58:40;5.50;;;4.40;;
16407;SDS011;8313;49.894;8.084;2023-05-14T03:01:06;5.10;;;4.00;;
16407;SDS011;8313;49.894;8.084;2023-05-14T03:03:32;4.27;;;3.90;;
16407;SDS011;8313;49.894;8.084;2023-05-14T03:05:58;5.13;;;4.70;;
16407;SDS011;8313;49.894;8.084;2023-05-14T03:08:24;4.10;;;3.80;;
16407;SDS011;8313;49.894;8.084;2023-05-14T03:10:50;4.63;;;4.17;;
16407;SDS011;8313;49.894;8.084;2023-05-14T03:13:15;5.90;;;4.57;;
16407;SDS011;8313;49.894;8.084;2023-05-14T03:15:44;4.70;;;4.17;;
16407;SDS011;8313;49.894;8.084;2023-05-14T03:18:11;4.47;;;4.00;;
16407;SDS011;8313;49.894;8.084;2023-05-14T03:20:40;4.60;;;4.17;;
16407;SDS011;8313;49.894;8.084;2023-05-14T03:23:06;5.80;;;4.53;;
16407;SDS011;8313;49.894;8.084;2023-05-14T03:25:31;4.37;;;3.97;;
16407;SDS011;8313;49.894;8.084;2023-05-14T03:27:58;9.73;;;4.00;;
16407;SDS011;8313;49.894;8.084;2023-05-14T03:30:24;6.20;;;3.80;;
16407;SDS011;8313;49.894;8.084;2023-05-14T03:32:49;4.97;;;4.33;;
16407;SDS011;8313;49.894;8.084;2023-05-14T03:35:15;6.83;;;3.67;;
16407;SDS011;8313;49.894;8.084;2023-05-14T03:37:41;4.47;;;4.07;;
16407;SDS011;8313;49.894;8.084;2023-05-14T03:40:07;4.00;;;3.70;;
16407;SDS011;8313;49.894;8.084;2023-05-14T03:42:34;4.33;;;3.93;;
16407;SDS011;8313;49.894;8.084;2023-05-14T03:45:01;5.10;;;4.53;;
16407;SDS011;8313;49.894;8.084;2023-05-14T03:47:27;4.40;;;4.00;;
16407;SDS011;8313;49.894;8.084;2023-05-14T03:49:53;5.20;;;4.80;;
16407;SDS011;8313;49.894;8.084;2023-05-14T03:52:19;4.10;;;3.77;;
16407;SDS011;8313;49.894;8.084;2023-05-14T03:54:44;5.20;;;4.70;;
16407;SDS011;8313;49.894;8.084;2023-05-14T03:57:10;4.00;;;3.70;;
16407;SDS011;8313;49.894;8.084;2023-05-14T03:59:36;4.00;;;3.60;;
16407;SDS011;8313;49.894;8.084;2023-05-14T04:02:01;4.00;;;3.70;;
16407;SDS011;8313;49.894;8.084;2023-05-14T04:04:27;4.03;;;3.73;;
16407;SDS011;8313;49.894;8.084;2023-05-14T04:06:53;4.37;;;3.97;;
16407;SDS011;8313;49.894;8.084;2023-05-14T04:09:19;3.87;;;3.57;;
16407;SDS011;8313;49.894;8.084;2023-05-14T04:11:44;4.97;;;4.00;;
16407;SDS011;8313;49.894;8.084;2023-05-14T04:14:10;4.40;;;3.80;;
16407;SDS011;8313;49.894;8.084;2023-05-14T04:16:36;4.50;;;4.10;;
16407;SDS011;8313;49.894;8.084;2023-05-14T04:19:01;4.50;;;4.10;;
16407;SDS011;8313;49.894;8.084;2023-05-14T04:21:30;4.20;;;3.80;;
16407;SDS011;8313;49.894;8.084;2023-05-14T04:23:56;5.93;;;5.40;;
16407;SDS011;8313;49.894;8.084;2023-05-14T04:26:22;4.73;;;4.33;;
16407;SDS011;8313;49.894;8.084;2023-05-14T04:28:47;4.17;;;3.70;;
16407;SDS011;8313;49.894;8.084;2023-05-14T04:31:14;5.20;;;4.37;;
16407;SDS011;8313;49.894;8.084;2023-05-14T04:33:39;4.80;;;4.40;;
16407;SDS011;8313;49.894;8.084;2023-05-14T04:36:05;4.83;;;4.30;;
16407;SDS011;8313;49.894;8.084;2023-05-14T04:38:32;4.33;;;3.97;;
16407;SDS011;8313;49.894;8.084;2023-05-14T04:40:58;4.30;;;3.90;;
16407;SDS011;8313;49.894;8.084;2023-05-14T04:43:23;4.77;;;4.37;;
16407;SDS011;8313;49.894;8.084;2023-05-14T04:45:49;4.13;;;3.83;;
16407;SDS011;8313;49.894;8.084;2023-05-14T04:48:16;3.70;;;3.40;;
16407;SDS011;8313;49.894;8.084;2023-05-14T04:50:42;4.50;;;3.87;;
16407;SDS011;8313;49.894;8.084;2023-05-14T04:53:08;5.60;;;4.10;;
16407;SDS011;8313;49.894;8.084;2023-05-14T04:55:34;4.77;;;4.37;;
16407;SDS011;8313;49.894;8.084;2023-05-14T04:58:00;4.17;;;3.77;;
16407;SDS011;8313;49.894;8.084;2023-05-14T05:00:27;4.83;;;4.00;;
16407;SDS011;8313;49.894;8.084;2023-05-14T05:02:53;4.63;;;4.07;;
16407;SDS011;8313;49.894;8.084;2023-05-14T05:05:18;5.13;;;4.23;;
16407;SDS011;8313;49.894;8.084;2023-05-14T05:07:44;4.90;;;4.13;;
16407;SDS011;8313;49.894;8.084;2023-05-14T05:10:11;6.87;;;3.90;;
16407;SDS011;8313;49.894;8.084;2023-05-14T05:12:37;4.13;;;3.73;;
16407;SDS011;8313;49.894;8.084;2023-05-14T05:15:03;4.00;;;3.60;;
16407;SDS011;8313;49.894;8.084;2023-05-14T05:17:29;5.00;;;4.53;;
16407;SDS011;8313;49.894;8.084;2023-05-14T05:19:55;4.93;;;4.03;;
16407;SDS011;8313;49.894;8.084;2023-05-14T05:22:22;4.30;;;3.90;;
16407;SDS011;8313;49.894;8.084;2023-05-14T05:24:48;5.00;;;3.97;;
16407;SDS011;8313;49.894;8.084;2023-05-14T05:27:14;5.57;;;4.90;;
16407;SDS011;8313;49.894;8.084;2023-05-14T05:29:39;5.80;;;5.00;;
16407;SDS011;8313;49.894;8.084;2023-05-14T05:32:05;5.07;;;4.33;;
16407;SDS011;8313;49.894;8.084;2023-05-14T05:34:31;5.70;;;4.87;;
16407;SDS011;8313;49.894;8.084;2023-05-14T05:36:57;5.70;;;4.97;;
16407;SDS011;8313;49.894;8.084;2023-05-14T05:39:23;4.90;;;4.40;;
16407;SDS011;8313;49.894;8.084;2023-05-14T05:41:49;5.03;;;4.60;;
16407;SDS011;8313;49.894;8.084;2023-05-14T05:44:14;4.20;;;3.80;;
16407;SDS011;8313;49.894;8.084;2023-05-14T05:46:40;7.60;;;5.00;;
16407;SDS011;8313;49.894;8.084;2023-05-14T05:49:06;5.73;;;5.10;;
16407;SDS011;8313;49.894;8.084;2023-05-14T05:51:31;5.23;;;4.73;;
16407;SDS011;8313;49.894;8.084;2023-05-14T05:53:57;5.00;;;4.50;;
16407;SDS011;8313;49.894;8.084;2023-05-14T05:56:23;5.23;;;4.73;;
16407;SDS011;8313;49.894;8.084;2023-05-14T05:58:48;5.97;;;5.37;;
16407;SDS011;8313;49.894;8.084;2023-05-14T06:01:14;5.20;;;4.77;;
16407;SDS011;8313;49.894;8.084;2023-05-14T06:03:40;7.43;;;5.43;;
16407;SDS011;8313;49.894;8.084;2023-05-14T06:06:05;7.27;;;5.20;;
16407;SDS011;8313;49.894;8.084;2023-05-14T06:08:31;4.67;;;4.20;;
16407;SDS011;8313;49.894;8.084;2023-05-14T06:10:57;4.73;;;4.33;;
16407;SDS011;8313;49.894;8.084;2023-05-14T06:13:23;4.70;;;4.30;;
16407;SDS011;8313;49.894;8.084;2023-05-14T06:15:48;5.80;;;5.30;;
16407;SDS011;8313;49.894;8.084;2023-05-14T06:18:14;6.17;;;4.60;;
16407;SDS011;8313;49.894;8.084;2023-05-14T06:20:40;6.00;;;5.13;;
16407;SDS011;8313;49.894;8.084;2023-05-14T06:23:06;6.37;;;4.27;;
16407;SDS011;8313;49.894;8.084;2023-05-14T06:25:32;4.70;;;4.30;;
16407;SDS011;8313;49.894;8.084;2023-05-14T06:27:58;4.53;;;4.20;;
16407;SDS011;8313;49.894;8.084;2023-05-14T06:30:24;5.30;;;4.80;;
16407;SDS011;8313;49.894;8.084;2023-05-14T06:32:49;4.77;;;4.37;;
16407;SDS011;8313;49.894;8.084;2023-05-14T06:35:16;4.60;;;4.07;;
16407;SDS011;8313;49.894;8.084;2023-05-14T06:37:43;4.80;;;4.33;;
16407;SDS011;8313;49.894;8.084;2023-05-14T06:40:09;4.63;;;3.80;;
16407;SDS011;8313;49.894;8.084;2023-05-14T06:42:35;6.47;;;4.80;;
16407;SDS011;8313;49.894;8.084;2023-05-14T06:45:03;6.07;;;4.23;;
16407;SDS011;8313;49.894;8.084;2023-05-14T06:47:29;4.40;;;3.90;;
16407;SDS011;8313;49.894;8.084;2023-05-14T06:49:55;4.63;;;4.30;;
16407;SDS011;8313;49.894;8.084;2023-05-14T06:52:22;5.10;;;4.60;;
16407;SDS011;8313;49.894;8.084;2023-05-14T06:54:49;4.93;;;4.47;;
16407;SDS011;8313;49.894;8.084;2023-05-14T06:57:15;5.10;;;4.60;;
16407;SDS011;8313;49.894;8.084;2023-05-14T06:59:40;7.03;;;4.37;;
16407;SDS011;8313;49.894;8.084;2023-05-14T07:02:06;5.00;;;4.50;;
16407;SDS011;8313;49.894;8.084;2023-05-14T07:04:32;4.80;;;4.40;;
16407;SDS011;8313;49.894;8.084;2023-05-14T07:06:57;4.60;;;4.20;;
16407;SDS011;8313;49.894;8.084;2023-05-14T07:09:23;6.27;;;4.63;;
16407;SDS011;8313;49.894;8.084;2023-05-14T07:11:48;4.37;;;3.97;;
16407;SDS011;8313;49.894;8.084;2023-05-14T07:14:14;7.50;;;4.90;;
16407;SDS011;8313;49.894;8.084;2023-05-14T07:16:40;4.60;;;4.20;;
16407;SDS011;8313;49.894;8.084;2023-05-14T07:19:06;5.20;;;4.63;;
16407;SDS011;8313;49.894;8.084;2023-05-14T07:21:33;4.77;;;4.30;;
16407;SDS011;8313;49.894;8.084;2023-05-14T07:23:59;5.20;;;4.13;;
16407;SDS011;8313;49.894;8.084;2023-05-14T07:26:24;4.10;;;3.70;;
16407;SDS011;8313;49.894;8.084;2023-05-14T07:28:50;4.87;;;4.37;;
16407;SDS011;8313;49.894;8.084;2023-05-14T07:31:16;4.83;;;4.33;;
16407;SDS011;8313;49.894;8.084;2023-05-14T07:33:41;4.90;;;4.50;;
16407;SDS011;8313;49.894;8.084;2023-05-14T07:36:07;5.30;;;4.40;;
16407;SDS011;8313;49.894;8.084;2023-05-14T07:38:33;4.97;;;4.33;;
16407;SDS011;8313;49.894;8.084;2023-05-14T07:40:58;4.70;;;3.80;;
16407;SDS011;8313;49.894;8.084;2023-05-14T07:43:24;4.40;;;4.00;;
16407;SDS011;8313;49.894;8.084;2023-05-14T07:45:50;5.07;;;3.87;;
16407;SDS011;8313;49.894;8.084;2023-05-14T07:48:16;4.50;;;4.10;;
16407;SDS011;8313;49.894;8.084;2023-05-14T07:50:42;6.00;;;4.30;;
16407;SDS011;8313;49.894;8.084;2023-05-14T07:53:08;4.33;;;3.93;;
16407;SDS011;8313;49.894;8.084;2023-05-14T07:55:33;5.00;;;3.77;;
16407;SDS011;8313;49.894;8.084;2023-05-14T07:57:59;4.80;;;4.30;;
16407;SDS011;8313;49.894;8.084;2023-05-14T08:00:25;4.60;;;4.20;;
16407;SDS011;8313;49.894;8.084;2023-05-14T08:02:51;4.10;;;3.77;;
16407;SDS011;8313;49.894;8.084;2023-05-14T08:05:17;5.13;;;4.60;;
16407;SDS011;8313;49.894;8.084;2023-05-14T08:07:43;4.70;;;4.20;;
16407;SDS011;8313;49.894;8.084;2023-05-14T08:10:09;5.03;;;4.53;;
16407;SDS011;8313;49.894;8.084;2023-05-14T08:12:35;5.27;;;4.00;;
16407;SDS011;8313;49.894;8.084;2023-05-14T08:15:01;4.37;;;3.80;;
16407;SDS011;8313;49.894;8.084;2023-05-14T08:17:27;4.73;;;4.33;;
16407;SDS011;8313;49.894;8.084;2023-05-14T08:19:53;3.70;;;3.40;;
16407;SDS011;8313;49.894;8.084;2023-05-14T08:22:18;4.00;;;3.67;;
16407;SDS011;8313;49.894;8.084;2023-05-14T08:24:44;4.60;;;3.80;;
16407;SDS011;8313;49.894;8.084;2023-05-14T08:27:10;4.23;;;3.80;;
16407;SDS011;8313;49.894;8.084;2023-05-14T08:29:36;5.23;;;3.80;;
16407;SDS011;8313;49.894;8.084;2023-05-14T08:32:01;4.50;;;4.10;;
16407;SDS011;8313;49.894;8.084;2023-05-14T08:34:27;5.17;;;4.50;;
16407;SDS011;8313;49.894;8.084;2023-05-14T08:36:53;4.20;;;3.60;;
16407;SDS011;8313;49.894;8.084;2023-05-14T08:39:19;4.27;;;3.90;;
16407;SDS011;8313;49.894;8.084;2023-05-14T08:41:45;4.77;;;3.70;;
16407;SDS011;8313;49.894;8.084;2023-05-14T08:46:43;4.57;;;4.07;;
16407;SDS011;8313;49.894;8.084;2023-05-14T08:49:13;4.27;;;3.87;;
16407;SDS011;8313;49.894;8.084;2023-05-14T08:51:41;3.70;;;3.40;;
16407;SDS011;8313;49.894;8.084;2023-05-14T08:54:16;4.00;;;3.63;;
16407;SDS011;8313;49.894;8.084;2023-05-14T08:56:43;6.00;;;4.00;;
16407;SDS011;8313;49.894;8.084;2023-05-14T08:59:10;3.73;;;3.37;;
16407;SDS011;8313;49.894;8.084;2023-05-14T09:01:37;4.10;;;3.70;;
16407;SDS011;8313;49.894;8.084;2023-05-14T09:04:06;4.40;;;3.87;;
16407;SDS011;8313;49.894;8.084;2023-05-14T09:06:35;4.67;;;3.73;;
16407;SDS011;8313;49.894;8.084;2023-05-14T09:09:03;4.13;;;3.73;;
16407;SDS011;8313;49.894;8.084;2023-05-14T09:11:29;3.80;;;3.50;;
16407;SDS011;8313;49.894;8.084;2023-05-14T09:13:55;4.17;;;3.87;;
16407;SDS011;8313;49.894;8.084;2023-05-14T09:16:21;4.20;;;3.80;;
16407;SDS011;8313;49.894;8.084;2023-05-14T09:18:49;3.67;;;3.37;;
16407;SDS011;8313;49.894;8.084;2023-05-14T09:21:16;4.10;;;3.70;;
16407;SDS011;8313;49.894;8.084;2023-05-14T09:23:43;4.03;;;3.70;;
16407;SDS011;8313;49.894;8.084;2023-05-14T09:26:09;3.70;;;3.40;;
16407;SDS011;8313;49.894;8.084;2023-05-14T09:28:39;4.57;;;3.43;;
16407;SDS011;8313;49.894;8.084;2023-05-14T09:31:08;3.90;;;3.57;;
16407;SDS011;8313;49.894;8.084;2023-05-14T09:33:34;4.63;;;4.23;;
16407;SDS011;8313;49.894;8.084;2023-05-14T09:36:00;3.90;;;3.50;;
16407;SDS011;8313;49.894;8.084;2023-05-14T09:38:27;4.50;;;4.10;;
16407;SDS011;8313;49.894;8.084;2023-05-14T09:40:54;4.27;;;3.87;;
16407;SDS011;8313;49.894;8.084;2023-05-14T09:43:20;5.60;;;3.30;;
16407;SDS011;8313;49.894;8.084;2023-05-14T09:45:46;3.90;;;3.60;;
16407;SDS011;8313;49.894;8.084;2023-05-14T09:48:11;3.73;;;3.43;;
16407;SDS011;8313;49.894;8.084;2023-05-14T09:50:41;3.70;;;3.40;;
16407;SDS011;8313;49.894;8.084;2023-05-14T09:53:07;4.70;;;3.90;;
16407;SDS011;8313;49.894;8.084;2023-05-14T09:55:34;4.40;;;4.00;;
16407;SDS011;8313;49.894;8.084;2023-05-14T09:58:03;4.07;;;3.33;;
16407;SDS011;8313;49.894;8.084;2023-05-14T10:00:33;3.63;;;3.33;;
16407;SDS011;8313;49.894;8.084;2023-05-14T10:03:01;4.07;;;3.70;;
16407;SDS011;8313;49.894;8.084;2023-05-14T10:05:32;3.60;;;3.30;;
16407;SDS011;8313;49.894;8.084;2023-05-14T10:07:59;3.87;;;3.40;;
16407;SDS011;8313;49.894;8.084;2023-05-14T10:10:33;5.40;;;3.50;;
16407;SDS011;8313;49.894;8.084;2023-05-14T10:13:05;3.80;;;3.23;;
16407;SDS011;8313;49.894;8.084;2023-05-14T10:18:25;3.80;;;3.37;;
16407;SDS011;8313;49.894;8.084;2023-05-14T10:21:04;3.53;;;3.23;;
16407;SDS011;8313;49.894;8.084;2023-05-14T10:23:31;6.57;;;3.70;;
16407;SDS011;8313;49.894;8.084;2023-05-14T10:25:57;4.27;;;3.67;;
16407;SDS011;8313;49.894;8.084;2023-05-14T10:28:24;3.70;;;3.40;;
16407;SDS011;8313;49.894;8.084;2023-05-14T10:30:50;3.17;;;2.97;;
16407;SDS011;8313;49.894;8.084;2023-05-14T10:33:16;3.90;;;3.60;;
16407;SDS011;8313;49.894;8.084;2023-05-14T10:38:27;3.40;;;3.20;;
16407;SDS011;8313;49.894;8.084;2023-05-14T10:41:09;3.97;;;3.53;;
16407;SDS011;8313;49.894;8.084;2023-05-14T10:43:37;3.47;;;3.10;;
16407;SDS011;8313;49.894;8.084;2023-05-14T10:46:04;2.80;;;2.60;;
16407;SDS011;8313;49.894;8.084;2023-05-14T10:48:31;3.93;;;3.20;;
16407;SDS011;8313;49.894;8.084;2023-05-14T10:50:58;3.67;;;3.33;;
16407;SDS011;8313;49.894;8.084;2023-05-14T10:55:56;4.87;;;3.57;;
16407;SDS011;8313;49.894;8.084;2023-05-14T10:58:22;3.30;;;3.03;;
16407;SDS011;8313;49.894;8.084;2023-05-14T11:00:48;3.77;;;3.47;;
16407;SDS011;8313;49.894;8.084;2023-05-14T11:03:19;4.10;;;3.70;;
16407;SDS011;8313;49.894;8.084;2023-05-14T11:05:45;3.70;;;3.37;;
16407;SDS011;8313;49.894;8.084;2023-05-14T11:08:11;3.50;;;3.20;;
16407;SDS011;8313;49.894;8.084;2023-05-14T11:10:38;5.27;;;3.30;;
16407;SDS011;8313;49.894;8.084;2023-05-14T11:13:04;3.60;;;3.30;;
16407;SDS011;8313;49.894;8.084;2023-05-14T11:15:30;3.87;;;3.57;;
16407;SDS011;8313;49.894;8.084;2023-05-14T11:17:56;3.60;;;3.30;;
16407;SDS011;8313;49.894;8.084;2023-05-14T11:20:21;4.13;;;3.33;;
16407;SDS011;8313;49.894;8.084;2023-05-14T11:22:47;3.63;;;3.10;;
16407;SDS011;8313;49.894;8.084;2023-05-14T11:25:15;3.37;;;3.07;;
16407;SDS011;8313;49.894;8.084;2023-05-14T11:27:42;3.60;;;3.30;;
16407;SDS011;8313;49.894;8.084;2023-05-14T11:32:39;4.20;;;3.70;;
16407;SDS011;8313;49.894;8.084;2023-05-14T11:35:05;3.73;;;3.37;;
16407;SDS011;8313;49.894;8.084;2023-05-14T11:37:31;4.80;;;3.13;;
16407;SDS011;8313;49.894;8.084;2023-05-14T11:39:58;3.50;;;3.20;;
16407;SDS011;8313;49.894;8.084;2023-05-14T11:42:25;3.57;;;3.27;;
16407;SDS011;8313;49.894;8.084;2023-05-14T11:44:51;3.73;;;3.40;;
16407;SDS011;8313;49.894;8.084;2023-05-14T11:47:18;3.30;;;3.10;;
16407;SDS011;8313;49.894;8.084;2023-05-14T11:49:45;3.53;;;3.23;;
16407;SDS011;8313;49.894;8.084;2023-05-14T11:52:12;3.53;;;3.00;;
16407;SDS011;8313;49.894;8.084;2023-05-14T11:54:39;3.70;;;3.40;;
16407;SDS011;8313;49.894;8.084;2023-05-14T11:57:12;4.27;;;3.57;;
16407;SDS011;8313;49.894;8.084;2023-05-14T11:59:40;4.13;;;3.83;;
16407;SDS011;8313;49.894;8.084;2023-05-14T12:02:09;3.20;;;3.00;;
16407;SDS011;8313;49.894;8.084;2023-05-14T12:04:37;3.77;;;3.30;;
16407;SDS011;8313;49.894;8.084;2023-05-14T12:07:13;5.30;;;3.40;;
16407;SDS011;8313;49.894;8.084;2023-05-14T12:09:44;3.73;;;3.40;;
16407;SDS011;8313;49.894;8.084;2023-05-14T12:12:14;3.70;;;3.17;;
16407;SDS011;8313;49.894;8.084;2023-05-14T12:14:42;3.40;;;3.10;;
16407;SDS011;8313;49.894;8.084;2023-05-14T12:17:19;4.13;;;3.83;;
16407;SDS011;8313;49.894;8.084;2023-05-14T12:19:47;3.67;;;2.80;;
16407;SDS011;8313;49.894;8.084;2023-05-14T12:22:16;2.83;;;2.63;;
16407;SDS011;8313;49.894;8.084;2023-05-14T12:24:52;4.27;;;3.50;;
16407;SDS011;8313;49.894;8.084;2023-05-14T12:27:20;2.87;;;2.67;;
16407;SDS011;8313;49.894;8.084;2023-05-14T12:29:59;3.03;;;2.83;;
16407;SDS011;8313;49.894;8.084;2023-05-14T12:32:27;2.77;;;2.57;;
16407;SDS011;8313;49.894;8.084;2023-05-14T12:35:00;2.97;;;2.77;;
16407;SDS011;8313;49.894;8.084;2023-05-14T12:37:26;4.63;;;3.00;;
16407;SDS011;8313;49.894;8.084;2023-05-14T12:39:51;3.13;;;2.83;;
16407;SDS011;8313;49.894;8.084;2023-05-14T12:42:17;3.53;;;3.17;;
16407;SDS011;8313;49.894;8.084;2023-05-14T12:44:43;3.40;;;3.10;;
16407;SDS011;8313;49.894;8.084;2023-05-14T12:47:09;3.63;;;3.33;;
16407;SDS011;8313;49.894;8.084;2023-05-14T12:49:34;3.17;;;2.97;;
16407;SDS011;8313;49.894;8.084;2023-05-14T12:52:00;3.37;;;2.73;;
16407;SDS011;8313;49.894;8.084;2023-05-14T12:54:26;2.90;;;2.70;;
16407;SDS011;8313;49.894;8.084;2023-05-14T12:56:52;3.07;;;2.87;;
16407;SDS011;8313;49.894;8.084;2023-05-14T12:59:17;3.13;;;2.93;;
16407;SDS011;8313;49.894;8.084;2023-05-14T13:01:43;2.93;;;2.60;;
16407;SDS011;8313;49.894;8.084;2023-05-14T13:04:09;3.60;;;3.30;;
16407;SDS011;8313;49.894;8.084;2023-05-14T13:06:38;3.60;;;3.30;;
16407;SDS011;8313;49.894;8.084;2023-05-14T13:09:04;3.30;;;3.10;;
16407;SDS011;8313;49.894;8.084;2023-05-14T13:11:31;2.90;;;2.70;;
16407;SDS011;8313;49.894;8.084;2023-05-14T13:13:57;2.87;;;2.67;;
16407;SDS011;8313;49.894;8.084;2023-05-14T13:16:24;3.53;;;3.23;;
16407;SDS011;8313;49.894;8.084;2023-05-14T13:18:51;2.90;;;2.70;;
16407;SDS011;8313;49.894;8.084;2023-05-14T13:21:16;2.90;;;2.60;;
16407;SDS011;8313;49.894;8.084;2023-05-14T13:23:42;3.37;;;2.87;;
16407;SDS011;8313;49.894;8.084;2023-05-14T13:26:07;2.70;;;2.53;;
16407;SDS011;8313;49.894;8.084;2023-05-14T13:28:33;4.73;;;2.70;;
16407;SDS011;8313;49.894;8.084;2023-05-14T13:31:05;3.47;;;3.17;;
16407;SDS011;8313;49.894;8.084;2023-05-14T13:33:36;3.50;;;2.47;;
16407;SDS011;8313;49.894;8.084;2023-05-14T13:36:05;3.57;;;3.27;;
16407;SDS011;8313;49.894;8.084;2023-05-14T13:38:32;3.80;;;3.50;;
16407;SDS011;8313;49.894;8.084;2023-05-14T13:40:58;3.03;;;2.83;;
16407;SDS011;8313;49.894;8.084;2023-05-14T13:43:32;3.40;;;3.20;;
16407;SDS011;8313;49.894;8.084;2023-05-14T13:46:00;3.13;;;2.93;;
16407;SDS011;8313;49.894;8.084;2023-05-14T13:48:27;3.10;;;2.90;;
16407;SDS011;8313;49.894;8.084;2023-05-14T13:50:52;3.30;;;3.07;;
16407;SDS011;8313;49.894;8.084;2023-05-14T13:53:19;3.40;;;3.20;;
16407;SDS011;8313;49.894;8.084;2023-05-14T13:55:45;3.70;;;3.40;;
16407;SDS011;8313;49.894;8.084;2023-05-14T13:58:11;3.70;;;3.37;;
16407;SDS011;8313;49.894;8.084;2023-05-14T14:00:37;3.20;;;2.90;;
16407;SDS011;8313;49.894;8.084;2023-05-14T14:03:02;3.50;;;3.20;;
16407;SDS011;8313;49.894;8.084;2023-05-14T14:05:28;3.40;;;3.10;;
16407;SDS011;8313;49.894;8.084;2023-05-14T14:07:55;2.97;;;2.77;;
16407;SDS011;8313;49.894;8.084;2023-05-14T14:10:20;3.67;;;3.37;;
16407;SDS011;8313;49.894;8.084;2023-05-14T14:12:46;3.33;;;3.13;;
16407;SDS011;8313;49.894;8.084;2023-05-14T14:15:12;4.57;;;2.97;;
16407;SDS011;8313;49.894;8.084;2023-05-14T14:17:39;4.73;;;3.60;;
16407;SDS011;8313;49.894;8.084;2023-05-14T14:20:08;3.67;;;3.40;;
16407;SDS011;8313;49.894;8.084;2023-05-14T14:22:35;3.17;;;2.93;;
16407;SDS011;8313;49.894;8.084;2023-05-14T14:25:01;3.10;;;2.90;;
16407;SDS011;8313;49.894;8.084;2023-05-14T14:27:27;5.23;;;3.30;;
16407;SDS011;8313;49.894;8.084;2023-05-14T14:29:55;3.23;;;3.03;;
16407;SDS011;8313;49.894;8.084;2023-05-14T14:32:20;4.70;;;3.27;;
16407;SDS011;8313;49.894;8.084;2023-05-14T14:34:46;3.37;;;3.17;;
16407;SDS011;8313;49.894;8.084;2023-05-14T14:37:12;3.23;;;3.03;;
16407;SDS011;8313;49.894;8.084;2023-05-14T14:39:38;3.30;;;2.93;;
16407;SDS011;8313;49.894;8.084;2023-05-14T14:42:04;2.80;;;2.60;;
16407;SDS011;8313;49.894;8.084;2023-05-14T14:44:30;3.70;;;2.80;;
16407;SDS011;8313;49.894;8.084;2023-05-14T14:46:56;3.23;;;3.03;;
16407;SDS011;8313;49.894;8.084;2023-05-14T14:49:22;3.80;;;3.50;;
16407;SDS011;8313;49.894;8.084;2023-05-14T14:51:47;3.13;;;2.93;;
16407;SDS011;8313;49.894;8.084;2023-05-14T14:54:13;3.00;;;2.70;;
16407;SDS011;8313;49.894;8.084;2023-05-14T14:56:39;3.30;;;3.00;;
16407;SDS011;8313;49.894;8.084;2023-05-14T14:59:04;3.73;;;2.50;;
16407;SDS011;8313;49.894;8.084;2023-05-14T15:01:30;3.10;;;2.90;;
16407;SDS011;8313;49.894;8.084;2023-05-14T15:03:56;5.23;;;2.80;;
16407;SDS011;8313;49.894;8.084;2023-05-14T15:06:21;3.00;;;2.80;;
16407;SDS011;8313;49.894;8.084;2023-05-14T15:08:47;3.37;;;3.10;;
16407;SDS011;8313;49.894;8.084;2023-05-14T15:11:13;3.20;;;3.00;;
16407;SDS011;8313;49.894;8.084;2023-05-14T15:13:38;3.10;;;2.90;;
16407;SDS011;8313;49.894;8.084;2023-05-14T15:16:05;4.00;;;2.57;;
16407;SDS011;8313;49.894;8.084;2023-05-14T15:18:31;3.60;;;3.30;;